createdAt,value
2018-07-10T00:04:52.967Z,17.50
2018-07-10T00:07:36.893Z,17.50
2018-07-10T00:12:17.301Z,17.40
2018-07-10T00:14:45.263Z,17.20
2018-07-10T00:17:13.184Z,16.90
2018-07-10T00:19:43.725Z,16.90
2018-07-10T00:22:13.602Z,16.80
2018-07-10T00:24:42.450Z,16.70
2018-07-10T00:27:10.737Z,16.60
2018-07-10T00:29:38.912Z,16.50
2018-07-10T00:32:07.076Z,16.30
2018-07-10T00:34:35.123Z,16.20
2018-07-10T00:37:03.179Z,16.10
2018-07-10T00:41:58.916Z,16.00
2018-07-10T00:46:54.684Z,16.00
2018-07-10T00:49:22.749Z,16.00
2018-07-10T00:51:50.757Z,15.90
2018-07-10T00:54:18.774Z,15.80
2018-07-10T00:59:14.816Z,15.50
2018-07-10T01:01:43.120Z,15.40
2018-07-10T01:04:11.091Z,15.30
2018-07-10T01:06:39.110Z,15.30
2018-07-10T01:09:11.712Z,15.30
2018-07-10T01:14:07.570Z,15.30
2018-07-10T01:16:36.624Z,15.30
2018-07-10T01:19:09.173Z,15.30
2018-07-10T01:21:38.531Z,15.30
2018-07-10T01:26:36.086Z,15.20
2018-07-10T01:29:10.380Z,15.20
2018-07-10T01:31:39.736Z,15.20
2018-07-10T01:34:07.808Z,15.10
2018-07-10T01:39:04.363Z,14.90
2018-07-10T01:44:00.182Z,14.80
2018-07-10T01:46:28.507Z,14.80
2018-07-10T01:48:56.588Z,14.80
2018-07-10T01:51:24.645Z,14.80
2018-07-10T01:53:52.612Z,14.80
2018-07-10T01:56:20.744Z,15.00
2018-07-10T01:58:49.174Z,15.00
2018-07-10T02:01:17.278Z,15.10
2018-07-10T02:03:45.634Z,15.20
2018-07-10T02:06:13.761Z,15.30
2018-07-10T02:08:41.854Z,15.30
2018-07-10T02:13:37.705Z,14.80
2018-07-10T02:57:43.897Z,14.90
2018-07-10T03:00:12.170Z,15.00
2018-07-10T03:02:40.440Z,15.10
2018-07-10T03:05:08.732Z,15.10
2018-07-10T03:07:38.276Z,15.10
2018-07-10T03:10:06.983Z,15.10
2018-07-10T03:15:10.889Z,15.20
2018-07-10T03:17:39.243Z,15.20
2018-07-10T03:20:08.163Z,15.20
2018-07-10T03:22:36.693Z,15.20
2018-07-10T03:25:05.501Z,15.10
2018-07-10T03:27:33.985Z,15.20
2018-07-10T03:30:02.707Z,15.20
2018-07-10T03:32:31.340Z,15.10
2018-07-10T03:34:59.716Z,15.10
2018-07-10T03:37:28.385Z,15.10
2018-07-10T03:39:56.779Z,15.10
2018-07-10T03:42:26.759Z,15.10
2018-07-10T03:44:55.084Z,15.10
2018-07-10T03:47:25.732Z,15.10
2018-07-10T03:49:54.007Z,15.10
2018-07-10T03:52:30.933Z,15.20
2018-07-10T03:55:01.268Z,15.20
2018-07-10T03:57:29.618Z,15.20
2018-07-10T04:00:03.389Z,15.20
2018-07-10T04:02:31.709Z,15.30
2018-07-10T04:05:00.143Z,15.40
2018-07-10T04:07:28.659Z,15.40
2018-07-10T04:09:57.320Z,15.40
2018-07-10T04:12:31.038Z,15.40
2018-07-10T04:14:59.327Z,15.50
2018-07-10T04:17:36.345Z,15.60
2018-07-10T04:20:04.541Z,15.60
2018-07-10T04:27:35.704Z,15.70
2018-07-10T04:31:11.080Z,15.80
2018-07-10T04:33:39.467Z,15.90
2018-07-10T04:36:07.877Z,15.90
2018-07-10T04:38:36.116Z,16.00
2018-07-10T04:43:41.948Z,16.00
2018-07-10T04:46:10.317Z,16.00
2018-07-10T04:48:42.547Z,16.00
2018-07-10T04:53:51.959Z,16.10
2018-07-10T04:56:20.347Z,16.10
2018-07-10T04:58:53.691Z,16.20
2018-07-10T05:01:29.684Z,16.20
2018-07-10T05:03:59.153Z,16.30
2018-07-10T05:06:27.640Z,16.30
2018-07-10T05:08:55.819Z,16.30
2018-07-10T05:11:24.308Z,16.50
2018-07-10T05:13:53.107Z,16.50
2018-07-10T05:16:21.489Z,16.50
2018-07-10T05:18:49.884Z,16.40
2018-07-10T05:21:18.120Z,16.30
2018-07-10T05:23:47.691Z,16.20
2018-07-10T05:26:16.823Z,16.30
2018-07-10T05:31:13.408Z,16.40
2018-07-10T05:33:46.092Z,16.50
2018-07-10T05:36:14.357Z,16.50
2018-07-10T05:38:45.615Z,16.50
2018-07-10T05:41:22.096Z,16.50
2018-07-10T05:43:52.347Z,16.50
2018-07-10T05:46:23.885Z,16.40
2018-07-10T05:48:57.110Z,16.40
2018-07-10T05:51:28.517Z,16.30
2018-07-10T05:53:56.911Z,16.20
2018-07-10T05:56:25.368Z,16.30
2018-07-10T05:58:53.731Z,16.30
2018-07-10T06:03:50.080Z,16.30
2018-07-10T06:06:18.392Z,16.30
2018-07-10T06:08:47.157Z,16.30
2018-07-10T06:11:15.240Z,16.30
2018-07-10T06:13:43.558Z,16.30
2018-07-10T06:16:12.507Z,16.40
2018-07-10T06:18:40.911Z,16.50
2018-07-10T06:21:09.155Z,16.60
2018-07-10T06:23:41.995Z,16.70
2018-07-10T06:26:10.856Z,16.80
2018-07-10T06:28:43.830Z,16.90
2018-07-10T06:31:14.635Z,17.10
2018-07-10T06:36:24.784Z,17.40
2018-07-10T06:38:53.752Z,17.50
2018-07-10T06:41:23.899Z,17.70
2018-07-10T06:43:56.069Z,18.00
2018-07-10T06:46:35.294Z,18.20
2018-07-10T06:49:12.960Z,18.20
2018-07-10T06:51:41.275Z,18.40
2018-07-10T06:54:09.537Z,18.50
2018-07-10T06:56:37.928Z,18.70
2018-07-10T06:59:06.184Z,18.70
2018-07-10T07:01:34.436Z,18.70
2018-07-10T07:06:34.055Z,19.10
2018-07-10T07:11:30.105Z,19.60
2018-07-10T07:16:26.156Z,20.00
2018-07-10T07:18:54.457Z,19.90
2018-07-10T07:21:22.652Z,20.10
2018-07-10T07:23:51.553Z,20.60
2018-07-10T07:26:19.780Z,21.40
2018-07-10T07:28:48.195Z,21.40
2018-07-10T07:31:16.537Z,21.40
2018-07-10T07:36:12.701Z,21.80
2018-07-10T07:38:41.090Z,22.10
2018-07-10T07:41:09.448Z,22.40
2018-07-10T07:43:37.738Z,22.40
2018-07-10T07:46:05.692Z,22.80
2018-07-10T07:51:02.272Z,23.30
2018-07-10T07:53:30.800Z,23.40
2018-07-10T07:55:59.221Z,23.20
2018-07-10T08:00:55.484Z,23.00
2018-07-10T08:03:23.643Z,22.80
2018-07-10T08:05:52.768Z,22.50
2018-07-10T08:08:20.908Z,22.10
2018-07-10T08:13:17.167Z,21.60
2018-07-10T08:15:45.455Z,21.80
2018-07-10T08:18:13.712Z,21.70
2018-07-10T08:23:10.486Z,21.80
2018-07-10T08:25:38.898Z,22.10
2018-07-10T08:28:07.126Z,22.10
2018-07-10T08:33:03.237Z,22.10
2018-07-10T08:35:31.587Z,22.20
2018-07-10T08:38:00.049Z,22.00
2018-07-10T08:40:28.256Z,21.80
2018-07-10T08:42:56.480Z,22.00
2018-07-10T08:45:24.680Z,22.10
2018-07-10T08:47:53.108Z,22.50
2018-07-10T08:50:21.351Z,22.80
2018-07-10T08:52:49.644Z,23.00
2018-07-10T08:55:18.010Z,22.80
2018-07-10T08:57:46.427Z,22.90
2018-07-10T09:00:14.648Z,23.20
2018-07-10T09:02:42.840Z,23.30
2018-07-10T09:05:11.104Z,23.50
2018-07-10T09:07:39.413Z,23.90
2018-07-10T09:10:07.556Z,23.80
2018-07-10T09:12:35.875Z,23.60
2018-07-10T09:15:03.965Z,23.60
2018-07-10T09:17:32.107Z,23.60
2018-07-10T09:20:02.694Z,23.40
2018-07-10T09:25:00.134Z,23.60
2018-07-10T09:27:28.383Z,23.40
2018-07-10T09:29:57.096Z,22.80
2018-07-10T09:32:31.119Z,22.80
2018-07-10T09:34:59.364Z,22.90
2018-07-10T09:37:35.941Z,23.10
2018-07-10T09:40:10.341Z,23.60
2018-07-10T09:45:09.204Z,24.10
2018-07-10T09:47:37.481Z,24.40
2018-07-10T09:50:05.706Z,24.80
2018-07-10T09:55:02.540Z,24.50
2018-07-10T09:57:31.503Z,24.60
2018-07-10T09:59:59.852Z,24.60
2018-07-10T10:02:30.391Z,24.40
2018-07-10T10:05:00.199Z,24.70
2018-07-10T10:07:29.025Z,24.80
2018-07-10T10:09:57.136Z,24.40
2018-07-10T10:12:25.456Z,24.40
2018-07-10T10:14:53.687Z,24.70
2018-07-10T10:17:22.895Z,24.40
2018-07-10T10:19:52.015Z,24.70
2018-07-10T10:22:20.419Z,24.60
2018-07-10T10:24:49.709Z,24.80
2018-07-10T10:27:18.016Z,24.90
2018-07-10T10:29:46.354Z,25.20
2018-07-10T10:32:14.644Z,25.10
2018-07-10T10:34:42.903Z,25.10
2018-07-10T10:39:39.172Z,24.50
2018-07-10T10:42:07.263Z,24.80
2018-07-10T10:44:35.536Z,25.20
2018-07-10T10:47:03.780Z,25.20
2018-07-10T10:52:00.144Z,25.90
2018-07-10T10:54:28.589Z,26.10
2018-07-10T10:56:56.896Z,26.10
2018-07-10T10:59:25.191Z,25.80
2018-07-10T11:01:54.285Z,26.50
2018-07-10T11:04:22.681Z,27.20
2018-07-10T11:06:50.900Z,26.90
2018-07-10T11:09:19.126Z,26.40
2018-07-10T11:11:47.408Z,26.10
2018-07-10T11:14:15.705Z,25.60
2018-07-10T11:16:43.954Z,25.10
2018-07-10T11:19:17.376Z,24.80
2018-07-10T11:21:57.206Z,24.60
2018-07-10T11:24:25.467Z,24.20
2018-07-10T11:26:53.788Z,24.30
2018-07-10T11:29:22.026Z,24.20
2018-07-10T11:31:50.424Z,24.30
2018-07-10T11:34:18.776Z,24.50
2018-07-10T11:39:15.185Z,24.40
2018-07-10T11:41:46.580Z,24.20
2018-07-10T11:44:14.769Z,24.50
2018-07-10T11:46:43.050Z,24.80
2018-07-10T11:49:11.430Z,24.80
2018-07-10T11:51:39.610Z,24.50
2018-07-10T11:54:07.975Z,24.40
2018-07-10T11:56:36.160Z,24.50
2018-07-10T11:59:04.751Z,24.10
2018-07-10T12:01:33.936Z,23.80
2018-07-10T12:04:02.647Z,24.10
2018-07-10T12:06:31.092Z,24.60
2018-07-10T12:11:30.441Z,25.00
2018-07-10T12:13:58.635Z,25.20
2018-07-10T12:16:26.883Z,25.10
2018-07-10T12:18:55.179Z,24.50
2018-07-10T12:21:23.430Z,24.30
2018-07-10T12:26:20.027Z,24.40
2018-07-10T12:28:48.334Z,24.30
2018-07-10T12:31:16.547Z,24.60
2018-07-10T12:33:44.743Z,24.70
2018-07-10T12:36:12.912Z,24.60
2018-07-10T12:38:41.364Z,24.70
2018-07-10T12:41:09.672Z,25.00
2018-07-10T12:43:37.956Z,24.80
2018-07-10T12:46:06.357Z,24.70
2018-07-10T12:48:34.541Z,24.80
2018-07-10T12:51:03.103Z,25.20
2018-07-10T12:53:31.457Z,25.00
2018-07-10T12:58:29.206Z,25.10
2018-07-10T13:00:57.453Z,24.90
2018-07-10T13:03:26.344Z,25.30
2018-07-10T13:05:55.527Z,25.10
2018-07-10T13:08:23.699Z,25.50
2018-07-10T13:10:51.999Z,25.90
2018-07-10T13:13:20.356Z,25.50
2018-07-10T13:15:48.624Z,24.90
2018-07-10T13:18:21.482Z,25.20
2018-07-10T13:20:49.583Z,24.90
2018-07-10T13:23:17.887Z,24.70
2018-07-10T13:25:46.140Z,24.70
2018-07-10T13:28:14.480Z,24.50
2018-07-10T13:30:42.814Z,24.40
2018-07-10T13:33:11.065Z,24.40
2018-07-10T13:35:39.690Z,23.40
2018-07-10T13:38:08.045Z,22.70
2018-07-10T13:40:37.212Z,22.40
2018-07-10T13:43:05.531Z,22.20
2018-07-10T13:45:33.817Z,22.20
2018-07-10T13:48:02.039Z,22.30
2018-07-10T13:50:32.538Z,21.90
2018-07-10T13:53:02.025Z,21.70
2018-07-10T13:55:30.924Z,22.00
2018-07-10T13:58:17.948Z,22.30
2018-07-10T14:00:52.195Z,22.20
2018-07-10T14:03:20.908Z,22.50
2018-07-10T14:05:49.292Z,22.30
2018-07-10T14:08:17.404Z,22.40
2018-07-10T14:10:45.680Z,22.50
2018-07-10T14:13:13.906Z,22.30
2018-07-10T14:15:42.122Z,22.70
2018-07-10T14:18:10.740Z,22.50
2018-07-10T14:20:44.446Z,22.00
2018-07-10T14:23:13.259Z,21.80
2018-07-10T14:25:41.568Z,21.90
2018-07-10T14:33:06.379Z,21.20
2018-07-10T14:35:34.800Z,20.90
2018-07-10T14:38:05.390Z,20.90
2018-07-10T14:40:36.594Z,20.50
2018-07-10T14:43:04.874Z,20.20
2018-07-10T14:45:33.371Z,20.20
2018-07-10T14:48:03.391Z,20.00
2018-07-10T14:50:31.797Z,19.40
2018-07-10T14:53:00.159Z,19.00
2018-07-10T14:55:28.462Z,18.60
2018-07-10T14:57:56.788Z,18.40
2018-07-10T15:00:25.087Z,18.10
2018-07-10T15:02:53.331Z,17.10
2018-07-10T15:05:21.735Z,16.20
2018-07-10T15:07:50.192Z,15.80
2018-07-10T15:10:18.438Z,15.70
2018-07-10T15:12:46.445Z,15.50
2018-07-10T15:15:14.579Z,15.50
2018-07-10T15:17:48.088Z,15.40
2018-07-10T15:20:16.054Z,15.40
2018-07-10T15:22:44.084Z,15.40
2018-07-10T15:25:12.124Z,15.50
2018-07-10T15:30:08.024Z,15.70
2018-07-10T15:32:36.104Z,16.00
2018-07-10T15:35:04.144Z,16.60
2018-07-10T15:37:32.214Z,16.90
2018-07-10T15:40:00.261Z,16.90
2018-07-10T15:42:28.365Z,16.80
2018-07-10T15:44:56.380Z,16.80
2018-07-10T15:47:24.433Z,16.80
2018-07-10T15:49:52.589Z,16.80
2018-07-10T15:52:20.620Z,16.80
2018-07-10T15:57:16.469Z,16.40
2018-07-10T15:59:44.575Z,16.20
2018-07-10T16:02:12.776Z,16.10
2018-07-10T16:04:40.807Z,16.10
2018-07-10T16:07:09.717Z,16.10
2018-07-10T16:09:37.828Z,16.20
2018-07-10T16:12:06.295Z,16.40
2018-07-10T16:14:36.621Z,16.60
2018-07-10T16:17:10.708Z,17.10
2018-07-10T16:19:43.037Z,17.80
2018-07-10T16:22:16.834Z,18.40
2018-07-10T16:24:50.013Z,18.50
2018-07-10T16:27:24.034Z,18.20
2018-07-10T16:29:52.115Z,18.30
2018-07-10T16:32:20.178Z,18.40
2018-07-10T16:34:48.258Z,18.40
2018-07-10T16:37:16.306Z,18.30
2018-07-10T16:39:44.380Z,18.20
2018-07-10T16:44:45.923Z,18.10
2018-07-10T16:47:23.592Z,18.00
2018-07-10T16:52:31.911Z,17.50
2018-07-10T16:55:00.018Z,17.70
2018-07-10T16:57:28.108Z,17.90
2018-07-10T16:59:56.327Z,18.00
2018-07-10T17:02:24.380Z,17.90
2018-07-10T17:04:52.924Z,17.80
2018-07-10T17:07:20.949Z,17.60
2018-07-10T17:09:49.008Z,17.30
2018-07-10T17:12:16.991Z,17.10
2018-07-10T17:14:51.357Z,16.90
2018-07-10T17:17:19.558Z,16.80
2018-07-10T17:19:47.596Z,16.80
2018-07-10T17:22:15.712Z,16.70
2018-07-10T17:24:43.773Z,16.60
2018-07-10T17:27:11.863Z,16.60
2018-07-10T17:29:39.869Z,16.60
2018-07-10T17:32:07.928Z,16.60
2018-07-10T17:34:36.207Z,16.60
2018-07-10T17:37:05.146Z,16.50
2018-07-10T17:39:33.137Z,16.50
2018-07-10T17:42:01.176Z,16.50
2018-07-10T17:46:57.022Z,16.40
2018-07-10T17:49:25.073Z,16.30
2018-07-10T17:51:53.224Z,16.30
2018-07-10T17:54:21.315Z,16.30
2018-07-10T17:56:49.338Z,16.30
2018-07-10T17:59:17.397Z,16.30
2018-07-10T18:01:45.392Z,16.30
2018-07-10T18:04:13.460Z,16.30
2018-07-10T18:06:41.420Z,16.40
2018-07-10T18:09:10.022Z,16.40
2018-07-10T18:11:38.028Z,16.40
2018-07-10T18:14:06.133Z,16.40
2018-07-10T18:16:35.484Z,16.50
2018-07-10T18:19:04.485Z,16.60
2018-07-10T18:21:33.875Z,16.70
2018-07-10T18:24:01.949Z,16.80
2018-07-10T18:26:29.995Z,17.00
2018-07-10T18:28:57.968Z,17.30
2018-07-10T18:31:25.996Z,17.20
2018-07-10T18:33:54.092Z,17.10
2018-07-10T18:36:22.168Z,17.00
2018-07-10T18:38:50.119Z,16.90
2018-07-10T18:41:18.214Z,16.90
2018-07-10T18:43:46.504Z,16.80
2018-07-10T18:46:14.818Z,16.60
2018-07-10T18:48:43.005Z,16.40
2018-07-10T18:51:11.045Z,16.20
2018-07-10T18:53:39.157Z,16.10
2018-07-10T18:56:07.224Z,16.10
2018-07-10T18:58:42.638Z,16.00
2018-07-10T19:01:29.537Z,16.10
2018-07-10T19:03:58.877Z,16.10
2018-07-10T19:06:26.906Z,16.00
2018-07-10T19:08:54.941Z,16.00
2018-07-10T19:11:26.015Z,15.90
2018-07-10T19:13:54.937Z,15.80
2018-07-10T19:16:23.840Z,15.90
2018-07-10T19:18:52.672Z,15.90
2018-07-10T19:21:28.512Z,15.90
2018-07-10T19:24:02.557Z,15.90
2018-07-10T19:29:11.115Z,15.80
2018-07-10T19:31:39.232Z,15.70
2018-07-10T19:34:07.256Z,15.60
2018-07-10T19:36:35.267Z,15.70
2018-07-10T19:39:05.304Z,15.70
2018-07-10T19:41:33.375Z,15.80
2018-07-10T19:44:01.930Z,15.80
2018-07-10T19:46:31.408Z,15.80
2018-07-10T19:48:59.524Z,15.80
2018-07-10T19:51:28.335Z,15.80
2018-07-10T19:54:06.333Z,15.80
2018-07-10T19:56:34.545Z,15.80
2018-07-10T20:02:05.176Z,15.80
2018-07-10T20:04:40.910Z,15.80
2018-07-10T20:07:15.252Z,15.80
2018-07-10T20:10:07.396Z,15.80
2018-07-10T20:12:41.011Z,15.80
2018-07-10T20:21:00.714Z,15.80
2018-07-10T20:24:08.845Z,15.80
2018-07-10T20:26:47.732Z,15.80
2018-07-10T20:29:54.012Z,15.80
2018-07-10T20:32:30.724Z,15.80
2018-07-10T20:35:15.766Z,15.70
2018-07-10T20:37:46.928Z,15.70
2018-07-10T20:45:11.285Z,15.60
2018-07-10T20:47:47.395Z,15.60
2018-07-10T20:50:58.931Z,15.60
2018-07-10T20:53:39.504Z,15.60
2018-07-10T20:56:18.682Z,15.50
2018-07-10T20:58:53.088Z,15.40
2018-07-10T21:01:27.173Z,15.40
2018-07-10T21:03:59.293Z,15.40
2018-07-10T21:06:43.065Z,15.50
2018-07-10T21:09:13.646Z,15.50
2018-07-10T21:12:52.816Z,15.40
2018-07-10T21:15:28.393Z,15.40
2018-07-10T21:18:21.941Z,15.30
2018-07-10T21:21:18.856Z,15.30
2018-07-10T21:24:26.017Z,15.30
2018-07-10T21:27:11.012Z,15.20
2018-07-10T21:29:50.352Z,15.10
2018-07-10T21:32:27.473Z,15.10
2018-07-10T21:34:56.043Z,15.00
2018-07-10T21:37:32.108Z,15.10
2018-07-10T21:40:11.029Z,15.00
2018-07-10T21:43:49.117Z,15.10
2018-07-10T21:46:37.037Z,15.20
2018-07-10T21:49:11.169Z,15.30
2018-07-10T21:51:41.010Z,15.30
2018-07-10T21:54:09.084Z,15.30
2018-07-10T21:56:37.106Z,15.30
2018-07-10T21:59:05.404Z,15.30
2018-07-10T22:01:47.964Z,15.30
2018-07-10T22:04:19.008Z,15.30
2018-07-10T22:06:48.407Z,15.20
2018-07-10T22:09:16.858Z,15.30
2018-07-10T22:11:46.209Z,15.20
2018-07-10T22:16:42.324Z,15.10
2018-07-10T22:19:10.692Z,15.10
2018-07-10T22:21:39.394Z,15.10
2018-07-10T22:24:07.381Z,15.10
2018-07-10T22:26:36.663Z,15.10
2018-07-10T22:29:04.748Z,15.10
2018-07-10T22:31:38.832Z,15.10
2018-07-10T22:34:06.871Z,15.10
2018-07-10T22:36:34.879Z,15.00
2018-07-10T22:39:03.821Z,15.00
2018-07-10T22:44:00.912Z,15.00
2018-07-10T22:46:28.923Z,15.00
2018-07-10T22:49:03.600Z,15.00
2018-07-10T22:51:31.736Z,15.00
2018-07-10T22:54:00.872Z,14.90
2018-07-10T22:56:29.981Z,14.90
2018-07-10T22:58:58.491Z,14.90
2018-07-10T23:01:26.538Z,14.90
2018-07-10T23:03:55.284Z,14.90
2018-07-10T23:06:23.251Z,14.80
2018-07-10T23:08:51.861Z,14.80
2018-07-10T23:13:48.416Z,14.70
2018-07-10T23:18:45.775Z,14.50
2018-07-10T23:21:16.590Z,14.40
2018-07-10T23:23:44.636Z,14.20
2018-07-10T23:26:14.478Z,14.10
2018-07-10T23:28:42.582Z,14.00
2018-07-10T23:33:41.515Z,13.70
2018-07-10T23:36:09.572Z,13.60
2018-07-10T23:38:58.646Z,13.50
2018-07-10T23:43:57.523Z,13.30
2018-07-10T23:46:35.548Z,13.20
2018-07-10T23:49:15.843Z,13.10
2018-07-10T23:51:54.923Z,13.10
2018-07-10T23:54:23.034Z,13.00
2018-07-10T23:56:51.140Z,12.90
2018-07-10T23:59:19.230Z,12.90
